createdAt,value
2019-06-08T00:01:50.279Z,1007
2019-06-08T00:07:20.861Z,1007
2019-06-08T00:12:51.045Z,1007
2019-06-08T00:18:21.510Z,1007
2019-06-08T00:23:50.375Z,1008
2019-06-08T00:29:20.754Z,1008
2019-06-08T00:34:50.086Z,1008
2019-06-08T00:40:21.070Z,1008
2019-06-08T00:45:49.837Z,1008
2019-06-08T00:51:20.976Z,1008
2019-06-08T00:56:50.839Z,1008
2019-06-08T01:02:22.441Z,1008
2019-06-08T01:07:50.484Z,1008
2019-06-08T01:13:20.789Z,1008
2019-06-08T01:18:49.184Z,1008
2019-06-08T01:24:19.623Z,1008
2019-06-08T01:29:48.802Z,1008
2019-06-08T01:35:20.707Z,1008
2019-06-08T01:40:48.528Z,1008
2019-06-08T01:46:17.900Z,1008
2019-06-08T01:51:48.365Z,1008
2019-06-08T01:57:17.571Z,1008
2019-06-08T02:02:46.994Z,1008
2019-06-08T02:08:17.315Z,1008
2019-06-08T02:13:47.628Z,1007
2019-06-08T02:19:18.056Z,1007
2019-06-08T02:24:47.312Z,1007
2019-06-08T02:30:16.652Z,1008
2019-06-08T02:35:47.029Z,1008
2019-06-08T02:41:17.299Z,1007
2019-06-08T02:46:46.599Z,1007
2019-06-08T02:52:15.977Z,1007
2019-06-08T02:57:45.325Z,1007
2019-06-08T03:03:15.735Z,1007
2019-06-08T03:08:45.845Z,1007
2019-06-08T03:14:16.971Z,1007
2019-06-08T03:19:45.508Z,1007
2019-06-08T03:25:15.755Z,1007
2019-06-08T03:30:54.612Z,1008
2019-06-08T03:36:16.359Z,1008
2019-06-08T03:41:45.703Z,1008
2019-06-08T03:47:15.913Z,1008
2019-06-08T03:52:46.369Z,1008
2019-06-08T03:58:15.414Z,1007
2019-06-08T04:03:46.183Z,1007
2019-06-08T04:09:13.990Z,1007
2019-06-08T04:14:44.896Z,1007
2019-06-08T04:20:12.729Z,1007
2019-06-08T04:25:42.472Z,1007
2019-06-08T04:31:11.070Z,1007
2019-06-08T04:36:41.232Z,1007
2019-06-08T04:42:09.634Z,1007
2019-06-08T04:47:41.433Z,1007
2019-06-08T04:53:10.139Z,1007
2019-06-08T04:58:41.579Z,1007
2019-06-08T05:04:09.719Z,1007
2019-06-08T05:09:41.062Z,1007
2019-06-08T05:15:09.208Z,1008
2019-06-08T05:20:41.046Z,1008
2019-06-08T05:26:07.834Z,1008
2019-06-08T05:31:39.353Z,1008
2019-06-08T05:37:08.624Z,1008
2019-06-08T05:42:40.567Z,1008
2019-06-08T05:48:08.030Z,1008
2019-06-08T05:53:39.590Z,1008
2019-06-08T05:59:13.697Z,1008
2019-06-08T06:04:40.670Z,1008
2019-06-08T06:10:09.201Z,1008
2019-06-08T06:15:40.873Z,1008
2019-06-08T06:21:11.967Z,1008
2019-06-08T06:26:41.259Z,1008
2019-06-08T06:32:11.074Z,1008
2019-06-08T06:37:39.965Z,1008
2019-06-08T06:43:09.279Z,1008
2019-06-08T06:48:46.113Z,1008
2019-06-08T06:54:09.004Z,1008
2019-06-08T06:59:38.300Z,1008
2019-06-08T07:05:07.665Z,1008
2019-06-08T07:10:36.976Z,1009
2019-06-08T07:16:17.632Z,1009
2019-06-08T07:21:41.491Z,1009
2019-06-08T07:27:07.426Z,1009
2019-06-08T07:32:35.171Z,1009
2019-06-08T07:38:04.660Z,1009
2019-06-08T07:43:34.864Z,1009
2019-06-08T07:49:14.117Z,1009
2019-06-08T07:54:35.640Z,1009
2019-06-08T08:00:09.269Z,1009
2019-06-08T08:05:36.370Z,1009
2019-06-08T08:11:06.841Z,1009
2019-06-08T08:16:36.163Z,1009
2019-06-08T08:22:19.386Z,1009
2019-06-08T08:27:37.528Z,1009
2019-06-08T08:33:07.538Z,1009
2019-06-08T08:38:34.930Z,1009
2019-06-08T08:44:05.354Z,1009
2019-06-08T08:49:37.801Z,1009
2019-06-08T08:55:04.975Z,1009
2019-06-08T09:00:38.192Z,1009
2019-06-08T09:06:05.734Z,1009
2019-06-08T09:11:38.281Z,1009
2019-06-08T09:22:50.003Z,1010
2019-06-08T09:28:09.567Z,1010
2019-06-08T09:33:35.568Z,1010
2019-06-08T09:39:11.183Z,1010
2019-06-08T09:44:34.222Z,1010
2019-06-08T09:50:05.569Z,1010
2019-06-08T09:55:41.348Z,1010
2019-06-08T10:01:06.051Z,1010
2019-06-08T10:06:33.701Z,1010
2019-06-08T10:12:04.874Z,1010
2019-06-08T10:17:32.497Z,1010
2019-06-08T10:23:03.762Z,1010
2019-06-08T10:28:30.901Z,1010
2019-06-08T10:34:03.076Z,1010
2019-06-08T10:39:30.623Z,1010
2019-06-08T10:45:05.068Z,1010
2019-06-08T10:50:29.318Z,1010
2019-06-08T10:56:01.242Z,1010
2019-06-08T11:01:29.953Z,1010
2019-06-08T11:07:05.429Z,1010
2019-06-08T11:12:33.322Z,1011
2019-06-08T11:18:02.026Z,1011
2019-06-08T11:23:30.171Z,1011
2019-06-08T11:34:29.616Z,1011
2019-06-08T11:39:59.913Z,1011
2019-06-08T11:45:30.982Z,1011
2019-06-08T11:51:00.636Z,1011
2019-06-08T11:56:28.460Z,1011
2019-06-08T12:01:58.561Z,1011
2019-06-08T12:07:29.987Z,1011
2019-06-08T12:12:58.077Z,1012
2019-06-08T12:18:27.371Z,1012
2019-06-08T12:23:56.417Z,1012
2019-06-08T12:29:28.364Z,1012
2019-06-08T12:34:59.617Z,1012
2019-06-08T12:40:28.063Z,1012
2019-06-08T12:45:57.883Z,1012
2019-06-08T12:51:25.210Z,1012
2019-06-08T12:56:55.252Z,1012
2019-06-08T13:02:24.564Z,1012
2019-06-08T13:07:53.541Z,1012
2019-06-08T13:13:24.507Z,1012
2019-06-08T13:18:59.244Z,1012
2019-06-08T13:24:21.932Z,1012
2019-06-08T13:29:51.141Z,1012
2019-06-08T13:35:22.061Z,1012
2019-06-08T13:40:51.024Z,1012
2019-06-08T13:46:20.484Z,1012
2019-06-08T13:51:47.907Z,1012
2019-06-08T13:57:20.543Z,1012
2019-06-08T14:02:48.330Z,1012
2019-06-08T14:08:20.441Z,1012
2019-06-08T14:13:48.212Z,1012
2019-06-08T14:19:19.837Z,1012
2019-06-08T14:24:47.879Z,1012
2019-06-08T14:30:18.291Z,1012
2019-06-08T14:35:47.888Z,1012
2019-06-08T14:41:19.400Z,1012
2019-06-08T14:46:54.856Z,1012
2019-06-08T14:52:18.769Z,1012
2019-06-08T14:57:48.134Z,1012
2019-06-08T15:03:17.958Z,1012
2019-06-08T15:08:45.024Z,1012
2019-06-08T15:14:14.388Z,1012
2019-06-08T15:19:43.462Z,1012
2019-06-08T15:25:13.010Z,1012
2019-06-08T15:30:41.951Z,1012
2019-06-08T15:36:11.140Z,1012
2019-06-08T15:41:41.501Z,1012
2019-06-08T15:47:18.162Z,1012
2019-06-08T15:52:39.666Z,1012
2019-06-08T15:58:09.867Z,1012
2019-06-08T16:03:38.809Z,1013
2019-06-08T16:09:07.855Z,1013
2019-06-08T16:14:37.042Z,1012
2019-06-08T16:20:07.113Z,1012
2019-06-08T16:25:38.942Z,1013
2019-06-08T16:31:06.386Z,1013
2019-06-08T16:36:36.579Z,1013
2019-06-08T16:42:06.584Z,1012
2019-06-08T16:47:35.695Z,1012
2019-06-08T16:53:04.866Z,1012
2019-06-08T16:58:36.098Z,1012
2019-06-08T17:04:05.116Z,1013
2019-06-08T17:09:35.902Z,1013
2019-06-08T17:15:05.469Z,1013
2019-06-08T17:20:34.574Z,1013
2019-06-08T17:26:03.770Z,1013
2019-06-08T17:31:35.116Z,1013
2019-06-08T17:37:02.873Z,1013
2019-06-08T17:42:32.113Z,1013
2019-06-08T17:48:01.159Z,1013
2019-06-08T17:53:30.492Z,1013
2019-06-08T17:59:00.488Z,1013
2019-06-08T18:04:30.507Z,1013
2019-06-08T18:10:00.695Z,1013
2019-06-08T18:15:31.053Z,1013
2019-06-08T18:20:59.858Z,1013
2019-06-08T18:26:30.100Z,1013
2019-06-08T18:37:29.311Z,1014
2019-06-08T18:42:59.112Z,1014
2019-06-08T18:48:29.501Z,1014
2019-06-08T18:54:08.153Z,1014
2019-06-08T18:59:28.930Z,1014
2019-06-08T19:04:57.915Z,1014
2019-06-08T19:10:27.362Z,1014
2019-06-08T19:15:59.392Z,1014
2019-06-08T19:21:27.577Z,1014
2019-06-08T19:27:01.608Z,1014
2019-06-08T19:32:22.886Z,1014
2019-06-08T19:37:53.544Z,1014
2019-06-08T19:43:21.029Z,1014
2019-06-08T19:48:54.665Z,1014
2019-06-08T19:54:19.867Z,1014
2019-06-08T19:59:49.866Z,1014
2019-06-08T20:05:19.857Z,1014
2019-06-08T20:10:50.782Z,1015
2019-06-08T20:16:19.944Z,1014
2019-06-08T20:21:51.345Z,1015
2019-06-08T20:27:18.492Z,1015
2019-06-08T20:32:50.496Z,1015
2019-06-08T20:38:17.668Z,1015
2019-06-08T20:43:48.941Z,1015
2019-06-08T20:49:17.199Z,1015
2019-06-08T20:54:47.788Z,1015
2019-06-08T21:00:15.155Z,1014
2019-06-08T21:05:52.655Z,1014
2019-06-08T21:11:13.974Z,1015
2019-06-08T21:16:44.623Z,1015
2019-06-08T21:22:13.812Z,1015
2019-06-08T21:27:42.804Z,1015
2019-06-08T21:33:17.861Z,1015
2019-06-08T21:38:40.845Z,1015
2019-06-08T21:44:09.559Z,1015
2019-06-08T21:49:39.531Z,1015
2019-06-08T21:55:08.645Z,1015
2019-06-08T22:00:42.669Z,1015
2019-06-08T22:06:08.190Z,1015
2019-06-08T22:11:37.571Z,1015
2019-06-08T22:17:07.335Z,1015
2019-06-08T22:22:37.627Z,1015
2019-06-08T22:28:07.160Z,1015
2019-06-08T22:33:37.537Z,1015
2019-06-08T22:39:04.914Z,1015
2019-06-08T22:44:33.895Z,1015
2019-06-08T22:50:03.933Z,1015
2019-06-08T23:01:07.856Z,1015
2019-06-08T23:06:33.743Z,1015
2019-06-08T23:12:04.353Z,1015
2019-06-08T23:17:31.618Z,1015
2019-06-08T23:23:02.691Z,1015
2019-06-08T23:28:31.490Z,1015
2019-06-08T23:34:03.530Z,1015
2019-06-08T23:39:28.959Z,1015
2019-06-08T23:44:59.429Z,1015
2019-06-08T23:50:27.764Z,1015
2019-06-08T23:55:58.581Z,1015
